17. August 2022

Uhrzeit Code Wetter Temp. Sichtweite Wolkendecke Wind METAR/SPECI
05:00
I
23 °C 10 km+ 800 ft 220° 220° 4 kt METAR DGAA 170500Z 22004KT 9999 BKN008 23/23 Q1013 NOSIG
04:00
I
23 °C 10 km+ 800 ft 190° 190° 5 kt METAR DGAA 170400Z 19005KT 9999 BKN008 23/23 Q1013 NOSIG
03:00
I
23 °C 10 km+ 800 ft 180° 180° 5 kt METAR DGAA 170300Z 18005KT 9999 BKN008 23/23 Q1012 NOSIG
01:00
V
23 °C 10 km+ - 190° 190° 5 kt METAR DGAA 170100Z 19005KT 9999 SCT011 23/23 Q1013 NOSIG
00:00
V
23 °C 10 km+ - 190° 190° 5 kt METAR DGAA 170000Z 19005KT 9999 SCT011 23/23 Q1014 NOSIG

16. August 2022

Uhrzeit Code Wetter Temp. Sichtweite Wolkendecke Wind METAR/SPECI
23:00
V
23 °C 10 km+ - 180° 180° 4 kt METAR DGAA 162300Z 18004KT 9999 SCT011 23/23 Q1014 NOSIG
22:00
V
24 °C 10 km+ - 180° 180° 5 kt METAR DGAA 162200Z 18005KT 9999 SCT011 24/23 Q1014 NOSIG
21:00
V
24 °C 10 km+ - 180° 180° 6 kt METAR DGAA 162100Z 18006KT 9999 SCT011 24/23 Q1013 NOSIG
20:00
V
24 °C 10 km+ - 200° 200° 8 kt METAR DGAA 162000Z 20008KT 9999 SCT011 24/23 Q1013 NOSIG
19:00
V
24 °C 10 km+ - 200° 200° 10 kt METAR DGAA 161900Z 20010KT 9999 SCT011 24/23 Q1012 NOSIG
17:00
M
25 °C 10 km+ 1.600 ft 190° 190° 14 kt METAR DGAA 161700Z 19014KT 9999 FEW010 BKN016 25/23 Q1012 NOSIG
16:00
M
26 °C 10 km+ 1.600 ft 190° 190° 15 kt METAR DGAA 161600Z 19015KT 9999 FEW010 BKN016 26/23 Q1012 NOSIG
15:00
M
26 °C 10 km+ 1.000 ft 190° 190° 15 kt METAR DGAA 161500Z 19015KT 9999 BKN010 26/23 Q1012 NOSIG
14:00
M
26 °C 10 km+ 1.000 ft 190° 190° 16 kt METAR DGAA 161400Z 19016KT 9999 BKN010 26/23 Q1013 NOSIG
13:00
M
27 °C 10 km+ 1.000 ft 200° 200° 14 kt METAR DGAA 161300Z 20014KT 9999 BKN010 27/23 Q1013 NOSIG
12:00
M
26 °C 10 km+ 1.000 ft 190° 190° 13 kt METAR DGAA 161200Z 19013KT 9999 BKN010 26/23 Q1014 NOSIG
11:00
M
26 °C 10 km+ 1.000 ft 200° 200° 14 kt METAR DGAA 161100Z 20014KT 9999 BKN010 26/23 Q1014 NOSIG
10:00
M
25 °C 10 km+ 1.000 ft 190° 190° 13 kt METAR DGAA 161000Z 19013KT 9999 BKN010 25/23 Q1014 NOSIG
09:00
I
24 °C 8 km 800 ft 200° 200° 10 kt METAR DGAA 160900Z 20010KT 8000 BKN008 24/23 Q1014 NOSIG
08:00
I
24 °C 5 km 800 ft 210° 210° 9 kt METAR DGAA 160800Z 21009KT 5000 -RA BKN008 24/23 Q1013 NOSIG
07:00
I
23 °C 5 km 800 ft 210° 210° 9 kt METAR DGAA 160700Z 21009KT 5000 RA BKN008 23/23 Q1012 NOSIG
06:00
I
23 °C 10 km+ 900 ft 220° 220° 8 kt METAR DGAA 160600Z 22008KT 9999 BKN009 23/23 Q1012 NOSIG
05:00
I
23 °C 10 km+ 900 ft 220° 220° 9 kt METAR DGAA 160500Z 22009KT 9999 BKN009 23/23 Q1012 NOSIG
04:00
I
23 °C 10 km+ 900 ft 210° 210° 10 kt METAR DGAA 160400Z 21010KT 9999 BKN009 23/23 Q1011 NOSIG
01:00
I
23 °C 7 km 800 ft 220° 220° 11 kt METAR DGAA 160100Z 22011KT 7000 -RA BKN008 23/23 Q1012 TEMPO 5000 RA
00:00
I
24 °C 8 km 900 ft 210° 210° 8 kt METAR DGAA 160000Z 21008KT 8000 BKN009 24/23 Q1013 NOSIG

15. August 2022

Uhrzeit Code Wetter Temp. Sichtweite Wolkendecke Wind METAR/SPECI
23:00
I
24 °C 8 km 900 ft 220° 220° 10 kt METAR DGAA 152300Z 22010KT 8000 BKN009 24/23 Q1013 NOSIG
22:00
I
24 °C 10 km+ 900 ft 220° 220° 10 kt METAR DGAA 152200Z 22010KT 9999 BKN009 24/23 Q1013 NOSIG
21:00
I
24 °C 10 km+ 900 ft 210° 210° 11 kt METAR DGAA 152100Z 21011KT 9999 BKN009 24/23 Q1012 NOSIG
20:00
I
24 °C 10 km+ 900 ft 220° 220° 13 kt METAR DGAA 152000Z 22013KT 9999 BKN009 24/23 Q1011 NOSIG
19:00
V
24 °C 10 km+ - 220° 220° 14 kt METAR DGAA 151900Z 22014KT 9999 SCT010 24/23 Q1011 NOSIG
18:00
I
25 °C 8 km 800 ft 220° 220° 13 kt METAR DGAA 151800Z 22013KT 8000 BKN008 25/23 Q1010 NOSIG
17:00
I
25 °C 8 km 800 ft 220° 220° 16 kt METAR DGAA 151700Z 22016KT 8000 BKN008 25/23 Q1010 NOSIG
16:00
I
25 °C 8 km 800 ft 220° 220° 15 kt METAR DGAA 151600Z 22015KT 8000 BKN008 25/23 Q1009 NOSIG
15:00
M
25 °C 10 km+ 1.000 ft 220° 220° 15 kt METAR DGAA 151500Z 22015KT 9999 BKN010 25/23 Q1010 NOSIG
14:00
M
25 °C 10 km+ 1.000 ft 210° 210° 15 kt METAR DGAA 151400Z 21015KT 9999 BKN010 25/23 Q1010 NOSIG
13:00
I
25 °C 10 km+ 800 ft 210° 210° 15 kt METAR DGAA 151300Z 21015KT 9999 BKN008 25/24 Q1012 NOSIG
12:00
M
25 °C 10 km+ 1.000 ft 200° 200° 15 kt METAR DGAA 151200Z 20015KT 9999 BKN010 25/23 Q1012 NOSIG
11:00
I
24 °C 10 km+ 800 ft 210° 210° 13 kt METAR DGAA 151100Z 21013KT 9999 BKN008 24/23 Q1012 NOSIG
10:00
I
24 °C 8 km 800 ft 220° 220° 11 kt METAR DGAA 151000Z 22011KT 8000 BR BKN008 24/23 Q1013 NOSIG
09:00
I
24 °C 2,5 km 800 ft 220° 220° 12 kt METAR DGAA 150900Z 22012KT 2500 BR BKN008 24/24 Q1013 TEMPO 2500-RA
08:00
I
24 °C 3 km 800 ft 220° 220° 10 kt METAR DGAA 150800Z 22010KT 3000 BR BKN008 24/23 Q1012 NOSIG
07:00
I
24 °C 5 km 800 ft 230° 230° 12 kt METAR DGAA 150700Z 23012KT 5000 DZ BKN008 24/23 Q1012 NOSIG
06:00
I
23 °C 10 km+ 900 ft 230° 230° 12 kt METAR DGAA 150600Z 23012KT 9999 BKN009 23/23 Q1011 NOSIG
05:00
I
23 °C 10 km+ 900 ft 230° 230° 9 kt METAR DGAA 150500Z 23009KT 9999 BKN009 23/23 Q1011 NOSIG
Ältere Daten

Wir und Dritte verfolgen dein Internetverhalten auf unserer Website mit Cookies. Wenn du fortfährst, gehen wir davon aus, dass du mit unserer Cookie-Richtlinie einverstanden bist. Mehr erfahren